createdAt,value
2018-02-27T00:02:21.405Z,19.07
2018-02-27T00:04:50.190Z,19.87
2018-02-27T00:07:18.818Z,20.60
2018-02-27T00:09:47.091Z,19.50
2018-02-27T00:12:16.648Z,19.83
2018-02-27T00:14:45.223Z,19.00
2018-02-27T00:17:14.051Z,18.70
2018-02-27T00:19:42.715Z,20.20
2018-02-27T00:22:10.538Z,20.80
2018-02-27T00:24:38.742Z,19.10
2018-02-27T00:27:08.579Z,20.63
2018-02-27T00:29:36.377Z,19.30
2018-02-27T00:32:04.182Z,19.63
2018-02-27T00:34:32.943Z,19.83
2018-02-27T00:37:03.870Z,21.80
2018-02-27T00:39:31.700Z,20.27
2018-02-27T00:41:59.527Z,18.83
2018-02-27T00:44:28.100Z,19.53
2018-02-27T00:46:57.630Z,21.47
2018-02-27T00:49:26.206Z,20.83
2018-02-27T00:51:55.590Z,19.90
2018-02-27T00:54:23.382Z,21.17
2018-02-27T00:56:51.943Z,22.30
2018-02-27T00:59:19.754Z,21.20
2018-02-27T01:01:47.563Z,20.30
2018-02-27T01:04:15.369Z,20.77
2018-02-27T01:06:43.168Z,21.60
2018-02-27T01:09:11.447Z,21.47
2018-02-27T01:11:39.999Z,21.17
2018-02-27T01:14:07.814Z,20.63
2018-02-27T01:16:35.614Z,21.37
2018-02-27T01:19:04.993Z,21.13
2018-02-27T01:21:32.882Z,21.30
2018-02-27T01:24:01.475Z,21.77
2018-02-27T01:26:29.282Z,22.43
2018-02-27T01:28:58.644Z,22.83
2018-02-27T01:31:26.494Z,23.03
2018-02-27T01:33:56.308Z,21.40
2018-02-27T01:36:24.886Z,22.63
2018-02-27T01:38:53.447Z,21.23
2018-02-27T01:41:21.357Z,22.10
2018-02-27T01:43:50.706Z,21.83
2018-02-27T01:46:18.510Z,23.30
2018-02-27T01:48:47.130Z,26.37
2018-02-27T01:51:15.682Z,26.83
2018-02-27T01:53:44.370Z,27.20
2018-02-27T01:56:12.951Z,29.13
2018-02-27T01:58:40.790Z,32.50
2018-02-27T02:01:08.869Z,33.70
2018-02-27T02:03:38.218Z,35.47
2018-02-27T02:06:06.023Z,34.37
2018-02-27T02:08:33.821Z,36.00
2018-02-27T02:11:03.245Z,37.97
2018-02-27T02:13:31.056Z,38.70
2018-02-27T02:15:59.655Z,37.57
2018-02-27T02:18:28.230Z,37.43
2018-02-27T02:20:57.463Z,37.60
2018-02-27T02:23:25.861Z,36.13
2018-02-27T02:25:53.671Z,34.67
2018-02-27T02:28:23.232Z,36.77
2018-02-27T02:30:52.512Z,34.53
2018-02-27T02:33:21.236Z,33.83
2018-02-27T02:35:49.071Z,36.17
2018-02-27T02:38:16.870Z,36.40
2018-02-27T02:40:47.038Z,35.50
2018-02-27T02:43:16.332Z,34.33
2018-02-27T02:45:44.490Z,32.13
2018-02-27T02:48:13.155Z,31.70
2018-02-27T02:50:40.960Z,32.30
2018-02-27T02:53:09.950Z,29.30
2018-02-27T02:55:37.747Z,29.63
2018-02-27T02:58:05.574Z,28.87
2018-02-27T03:00:34.027Z,29.93
2018-02-27T03:03:01.822Z,30.57
2018-02-27T03:05:29.626Z,30.67
2018-02-27T03:07:57.437Z,27.60
2018-02-27T03:10:26.011Z,27.23
2018-02-27T03:12:54.731Z,26.17
2018-02-27T03:15:23.310Z,24.47
2018-02-27T03:17:51.115Z,24.07
2018-02-27T03:20:20.721Z,21.67
2018-02-27T03:22:49.479Z,23.13
2018-02-27T03:25:17.284Z,21.40
2018-02-27T03:27:46.592Z,19.87
2018-02-27T03:30:15.711Z,19.87
2018-02-27T03:32:43.559Z,20.00
2018-02-27T03:35:11.398Z,19.63
2018-02-27T03:37:39.198Z,20.87
2018-02-27T03:40:08.786Z,18.50
2018-02-27T03:42:37.250Z,18.93
2018-02-27T03:45:05.137Z,17.93
2018-02-27T03:47:32.922Z,19.93
2018-02-27T03:50:01.536Z,17.03
2018-02-27T03:52:29.352Z,17.50
2018-02-27T03:54:57.138Z,17.30
2018-02-27T03:57:25.701Z,17.10
2018-02-27T03:59:53.545Z,15.37
2018-02-27T04:02:21.561Z,16.33
2018-02-27T04:04:49.372Z,17.20
2018-02-27T04:07:17.294Z,16.67
2018-02-27T04:09:45.114Z,16.10
2018-02-27T04:12:12.992Z,15.83
2018-02-27T04:14:40.850Z,16.40
2018-02-27T04:17:10.426Z,15.47
2018-02-27T04:19:39.559Z,15.53
2018-02-27T04:22:07.353Z,16.87
2018-02-27T04:24:36.551Z,17.17
2018-02-27T04:27:05.594Z,18.77
2018-02-27T04:29:33.380Z,18.67
2018-02-27T04:32:02.818Z,19.00
2018-02-27T04:34:31.390Z,18.30
2018-02-27T04:37:00.882Z,17.73
2018-02-27T04:39:28.675Z,15.83
2018-02-27T04:41:56.497Z,16.40
2018-02-27T04:44:24.294Z,17.40
2018-02-27T04:46:53.449Z,16.43
2018-02-27T04:49:21.261Z,16.07
2018-02-27T04:51:49.076Z,16.40
2018-02-27T04:54:18.247Z,17.17
2018-02-27T04:56:46.043Z,16.20
2018-02-27T04:59:15.410Z,15.83
2018-02-27T05:01:43.234Z,15.30
2018-02-27T05:04:11.043Z,17.00
2018-02-27T05:06:39.496Z,16.90
2018-02-27T05:09:08.062Z,15.77
2018-02-27T05:11:35.905Z,16.80
2018-02-27T05:14:04.458Z,15.70
2018-02-27T05:16:32.269Z,16.93
2018-02-27T05:19:01.113Z,16.83
2018-02-27T05:21:29.582Z,18.10
2018-02-27T05:23:57.390Z,19.80
2018-02-27T05:26:25.191Z,20.47
2018-02-27T05:28:53.763Z,19.30
2018-02-27T05:31:22.336Z,20.00
2018-02-27T05:33:51.302Z,19.50
2018-02-27T05:36:19.094Z,20.67
2018-02-27T05:38:47.658Z,19.43
2018-02-27T05:41:15.460Z,20.03
2018-02-27T05:43:44.040Z,19.60
2018-02-27T05:46:13.553Z,20.80
2018-02-27T05:48:42.864Z,21.80
2018-02-27T05:51:10.665Z,19.50
2018-02-27T05:53:40.174Z,18.07
2018-02-27T05:56:09.842Z,17.13
2018-02-27T05:58:38.465Z,18.20
2018-02-27T06:01:07.882Z,17.47
2018-02-27T06:03:36.659Z,15.87
2018-02-27T06:06:04.460Z,17.00
2018-02-27T06:08:32.272Z,17.73
2018-02-27T06:11:00.085Z,19.77
2018-02-27T06:13:28.754Z,18.40
2018-02-27T06:15:57.533Z,17.23
2018-02-27T06:18:25.942Z,18.00
2018-02-27T06:20:54.896Z,17.03
2018-02-27T06:23:22.705Z,16.40
2018-02-27T06:25:51.300Z,16.80
2018-02-27T06:28:19.533Z,18.00
2018-02-27T06:30:47.341Z,17.83
2018-02-27T06:33:15.186Z,23.87
2018-02-27T06:35:43.552Z,23.50
2018-02-27T06:38:12.116Z,31.10
2018-02-27T06:40:40.680Z,33.30
2018-02-27T06:43:09.404Z,37.23
2018-02-27T06:45:39.174Z,35.30
2018-02-27T06:48:07.019Z,36.73
2018-02-27T06:50:35.094Z,38.80
2018-02-27T06:53:02.886Z,39.63
2018-02-27T06:55:31.453Z,40.13
2018-02-27T06:57:59.814Z,40.13
2018-02-27T07:00:27.611Z,38.17
2018-02-27T07:02:56.216Z,40.47
2018-02-27T07:05:24.676Z,42.63
2018-02-27T07:07:53.272Z,39.50
2018-02-27T07:10:21.838Z,42.27
2018-02-27T07:12:49.646Z,42.73
2018-02-27T07:15:18.195Z,40.53
2018-02-27T07:17:46.735Z,41.40
2018-02-27T07:20:14.587Z,42.35
2018-02-27T07:22:43.321Z,40.87
2018-02-27T07:25:11.124Z,38.70
2018-02-27T07:27:39.686Z,41.73
2018-02-27T07:30:07.534Z,36.50
2018-02-27T07:32:35.334Z,35.63
2018-02-27T07:35:04.666Z,34.07
2018-02-27T07:37:32.463Z,35.00
2018-02-27T07:40:00.250Z,33.30
2018-02-27T07:42:28.034Z,33.43
2018-02-27T07:44:57.646Z,33.27
2018-02-27T07:47:26.215Z,32.57
2018-02-27T07:49:55.599Z,30.93
2018-02-27T07:52:23.486Z,29.80
2018-02-27T07:54:52.044Z,28.07
2018-02-27T07:57:19.857Z,27.97
2018-02-27T07:59:47.646Z,28.93
2018-02-27T08:02:15.445Z,26.43
2018-02-27T08:04:43.235Z,27.73
2018-02-27T08:07:12.063Z,25.83
2018-02-27T08:09:39.862Z,24.63
2018-02-27T08:12:07.657Z,24.33
2018-02-27T08:14:36.288Z,26.97
2018-02-27T08:17:05.091Z,25.20
2018-02-27T08:19:34.856Z,22.97
2018-02-27T08:22:04.312Z,23.70
2018-02-27T08:24:33.020Z,25.27
2018-02-27T08:27:02.078Z,23.40
2018-02-27T08:43:34.535Z,24.03
2018-02-27T08:46:02.416Z,23.27
2018-02-27T08:52:01.359Z,21.57
2018-02-27T09:01:23.864Z,21.30
2018-02-27T09:13:34.452Z,20.53
2018-02-27T09:16:04.389Z,21.20
2018-02-27T09:18:32.806Z,20.73
2018-02-27T09:21:01.154Z,20.70
2018-02-27T09:23:30.542Z,23.20
2018-02-27T09:25:59.105Z,21.40
2018-02-27T09:28:26.894Z,23.27
2018-02-27T09:30:55.715Z,22.00
2018-02-27T09:33:23.516Z,23.70
2018-02-27T09:35:51.325Z,21.83
2018-02-27T09:38:19.890Z,21.13
2018-02-27T09:40:50.236Z,20.80
2018-02-27T09:43:19.576Z,23.53
2018-02-27T09:45:47.479Z,20.93
2018-02-27T09:48:16.263Z,19.77
2018-02-27T09:50:44.296Z,18.23
2018-02-27T09:53:13.104Z,18.00
2018-02-27T09:55:41.804Z,18.87
2018-02-27T09:58:09.604Z,19.80
2018-02-27T10:00:37.428Z,19.40
2018-02-27T10:03:05.270Z,20.10
2018-02-27T10:05:34.039Z,20.17
2018-02-27T10:08:01.870Z,20.00
2018-02-27T10:10:30.446Z,18.87
2018-02-27T10:12:58.856Z,20.30
2018-02-27T10:15:26.638Z,19.43
2018-02-27T10:17:57.173Z,20.77
2018-02-27T10:20:24.957Z,18.90
2018-02-27T10:22:52.743Z,18.37
2018-02-27T10:25:20.557Z,18.77
2018-02-27T10:27:48.379Z,17.53
2018-02-27T10:30:16.148Z,19.37
2018-02-27T10:32:45.067Z,17.93
2018-02-27T10:35:12.841Z,17.87
2018-02-27T10:37:40.622Z,17.33
2018-02-27T10:40:09.174Z,18.77
2018-02-27T10:42:36.965Z,23.03
2018-02-27T10:45:04.754Z,18.70
2018-02-27T10:47:32.538Z,16.73
2018-02-27T10:50:01.161Z,15.83
2018-02-27T10:52:28.933Z,15.53
2018-02-27T10:54:56.773Z,15.23
2018-02-27T10:57:25.288Z,16.63
2018-02-27T10:59:53.082Z,15.20
2018-02-27T11:02:21.654Z,12.87
2018-02-27T11:04:49.435Z,12.77
2018-02-27T11:07:17.989Z,11.30
2018-02-27T11:09:45.803Z,11.33
2018-02-27T11:12:14.369Z,11.77
2018-02-27T11:14:42.924Z,10.70
2018-02-27T11:17:10.719Z,12.17
2018-02-27T11:19:39.305Z,12.27
2018-02-27T11:22:07.849Z,13.50
2018-02-27T11:24:36.409Z,12.13
2018-02-27T11:27:04.193Z,12.97
2018-02-27T11:29:31.985Z,10.83
2018-02-27T11:31:59.771Z,11.10
2018-02-27T11:34:28.328Z,10.87
2018-02-27T11:36:56.130Z,10.93
2018-02-27T11:39:23.933Z,11.20
2018-02-27T11:41:51.703Z,9.60
2018-02-27T11:44:19.520Z,10.23
2018-02-27T11:46:47.304Z,8.90
2018-02-27T11:49:15.093Z,9.33
2018-02-27T11:51:42.870Z,8.30
2018-02-27T11:54:10.665Z,6.90
2018-02-27T11:56:39.206Z,6.90
2018-02-27T11:59:06.989Z,5.90
2018-02-27T12:01:35.857Z,6.40
2018-02-27T12:04:03.653Z,7.07
2018-02-27T12:06:32.205Z,9.73
2018-02-27T12:08:59.999Z,5.77
2018-02-27T12:11:28.546Z,5.27
2018-02-27T12:13:57.916Z,3.93
2018-02-27T12:16:25.773Z,3.60
2018-02-27T12:18:53.558Z,3.90
2018-02-27T12:21:21.496Z,2.97
2018-02-27T12:23:50.122Z,3.40
2018-02-27T12:26:17.894Z,3.60
2018-02-27T12:28:45.662Z,3.90
2018-02-27T12:31:13.426Z,2.93
2018-02-27T12:33:41.215Z,3.73
2018-02-27T12:36:08.978Z,3.97
2018-02-27T12:38:36.770Z,2.50
2018-02-27T12:41:04.562Z,3.10
2018-02-27T12:43:32.349Z,2.80
2018-02-27T12:46:00.137Z,2.73
2018-02-27T12:48:27.914Z,3.42
2018-02-27T12:50:56.478Z,3.90
2018-02-27T12:53:24.291Z,2.87
2018-02-27T12:55:52.072Z,3.77
2018-02-27T12:58:21.142Z,3.13
2018-02-27T13:00:49.241Z,3.20
2018-02-27T13:03:18.509Z,2.80
2018-02-27T13:05:46.429Z,3.23
2018-02-27T13:08:15.519Z,3.00
2018-02-27T13:10:43.301Z,2.67
2018-02-27T13:13:11.182Z,2.43
2018-02-27T13:15:39.729Z,4.10
2018-02-27T13:18:07.542Z,3.47
2018-02-27T13:20:36.082Z,3.53
2018-02-27T13:23:03.853Z,2.03
2018-02-27T13:25:31.649Z,3.00
2018-02-27T13:27:59.457Z,2.67
2018-02-27T13:30:27.234Z,2.47
2018-02-27T13:32:55.045Z,2.70
2018-02-27T13:35:23.576Z,2.60
2018-02-27T13:37:51.381Z,2.80
2018-02-27T13:40:19.266Z,3.13
2018-02-27T13:42:47.042Z,2.80
2018-02-27T13:45:14.816Z,3.20
2018-02-27T13:47:42.598Z,3.33
2018-02-27T13:50:10.370Z,2.27
2018-02-27T13:52:38.169Z,2.77
2018-02-27T13:55:06.721Z,2.40
2018-02-27T13:57:34.494Z,2.67
2018-02-27T14:00:02.286Z,2.33
2018-02-27T14:02:30.826Z,2.30
2018-02-27T14:04:58.598Z,2.80
2018-02-27T14:07:26.361Z,2.70
2018-02-27T14:09:54.137Z,2.70
2018-02-27T14:12:21.921Z,2.60
2018-02-27T14:14:50.462Z,2.20
2018-02-27T14:17:18.224Z,2.33
2018-02-27T14:19:46.010Z,2.30
2018-02-27T14:22:13.798Z,2.80
2018-02-27T14:24:42.346Z,2.60
2018-02-27T14:27:10.125Z,3.20
2018-02-27T14:29:37.908Z,3.13
2018-02-27T14:32:06.525Z,2.50
2018-02-27T14:34:34.328Z,3.00
2018-02-27T14:37:02.143Z,2.80
2018-02-27T14:39:29.917Z,2.33
2018-02-27T14:41:57.698Z,2.37
2018-02-27T14:44:25.489Z,4.20
2018-02-27T14:46:53.523Z,22.57
2018-02-27T14:49:21.334Z,5.03
2018-02-27T14:51:49.111Z,3.90
2018-02-27T14:54:17.673Z,3.97
2018-02-27T14:56:45.465Z,3.17
2018-02-27T14:59:14.023Z,3.80
2018-02-27T15:01:42.602Z,4.67
2018-02-27T15:04:10.399Z,3.03
2018-02-27T15:06:38.200Z,3.87
2018-02-27T15:09:05.972Z,3.40
2018-02-27T15:11:33.777Z,2.83
2018-02-27T15:14:02.335Z,3.90
2018-02-27T15:16:30.124Z,3.43
2018-02-27T15:18:58.705Z,3.30
2018-02-27T15:21:27.268Z,2.90
2018-02-27T15:23:55.074Z,3.23
2018-02-27T15:26:22.862Z,3.47
2018-02-27T15:28:50.647Z,3.20
2018-02-27T15:31:18.445Z,3.13
2018-02-27T15:33:47.007Z,3.47
2018-02-27T15:36:14.809Z,3.63
2018-02-27T15:38:42.685Z,2.87
2018-02-27T15:41:10.468Z,3.10
2018-02-27T15:43:38.293Z,3.40
2018-02-27T15:46:06.889Z,2.87
2018-02-27T15:48:34.682Z,3.67
2018-02-27T15:51:02.454Z,4.60
2018-02-27T15:53:30.259Z,4.23
2018-02-27T15:55:58.852Z,4.40
2018-02-27T15:58:27.439Z,3.93
2018-02-27T16:03:30.733Z,4.00
2018-02-27T16:05:58.542Z,4.80
2018-02-27T16:08:26.320Z,3.93
2018-02-27T16:10:54.888Z,3.97
2018-02-27T16:13:22.679Z,3.40
2018-02-27T16:15:50.565Z,4.50
2018-02-27T16:18:18.387Z,3.87
2018-02-27T16:20:46.985Z,3.73
2018-02-27T16:23:14.761Z,3.80
2018-02-27T16:25:43.224Z,4.40
2018-02-27T16:28:11.033Z,2.93
2018-02-27T16:30:38.823Z,3.13
2018-02-27T16:33:06.602Z,4.77
2018-02-27T16:35:34.412Z,3.60
2018-02-27T16:38:02.194Z,4.80
2018-02-27T16:40:29.973Z,4.03
2018-02-27T16:42:58.517Z,3.10
2018-02-27T16:45:26.309Z,3.27
2018-02-27T16:47:56.600Z,2.77
2018-02-27T16:50:24.395Z,3.47
2018-02-27T16:52:52.956Z,3.57
2018-02-27T16:55:20.736Z,4.00
2018-02-27T16:57:48.528Z,2.53
2018-02-27T17:00:16.307Z,4.17
2018-02-27T17:02:44.089Z,3.55
2018-02-27T17:05:11.870Z,3.53
2018-02-27T17:07:39.650Z,3.70
2018-02-27T17:10:07.460Z,3.47
2018-02-27T17:12:35.268Z,4.50
2018-02-27T17:15:03.073Z,3.30
2018-02-27T17:17:31.688Z,4.47
2018-02-27T17:19:59.474Z,4.63
2018-02-27T17:22:27.262Z,4.57
2018-02-27T17:24:55.110Z,5.13
2018-02-27T17:27:22.903Z,5.50
2018-02-27T17:29:52.325Z,4.83
2018-02-27T17:32:20.110Z,4.70
2018-02-27T17:34:47.886Z,4.17
2018-02-27T17:37:15.682Z,4.13
2018-02-27T17:39:43.470Z,4.50
2018-02-27T17:42:13.710Z,4.10
2018-02-27T17:44:41.525Z,4.03
2018-02-27T17:47:09.725Z,5.53
2018-02-27T17:49:37.564Z,4.40
2018-02-27T17:52:05.472Z,4.97
2018-02-27T17:54:33.558Z,4.93
2018-02-27T17:57:03.665Z,5.13
2018-02-27T17:59:33.818Z,3.00
2018-02-27T18:02:03.540Z,3.77
2018-02-27T18:04:31.329Z,3.80
2018-02-27T18:06:59.123Z,3.70
2018-02-27T18:09:28.805Z,4.90
2018-02-27T18:11:57.935Z,4.77
2018-02-27T18:14:25.733Z,4.13
2018-02-27T18:16:53.540Z,4.27
2018-02-27T18:19:24.432Z,3.73
2018-02-27T18:21:52.602Z,3.67
2018-02-27T18:24:20.417Z,4.53
2018-02-27T18:26:50.707Z,4.03
2018-02-27T18:29:19.290Z,3.40
2018-02-27T18:31:47.071Z,4.70
2018-02-27T18:34:16.432Z,3.83
2018-02-27T18:36:44.223Z,4.40
2018-02-27T18:39:12.004Z,4.80
2018-02-27T18:41:39.791Z,4.80
2018-02-27T18:44:08.417Z,4.30
2018-02-27T18:46:36.165Z,4.20
2018-02-27T18:49:03.967Z,3.97
2018-02-27T18:51:31.770Z,3.60
2018-02-27T18:53:59.591Z,4.00
2018-02-27T18:56:27.402Z,3.97
2018-02-27T18:58:55.186Z,4.63
2018-02-27T19:01:23.756Z,3.80
2018-02-27T19:03:51.545Z,3.60
2018-02-27T19:06:19.420Z,4.80
2018-02-27T19:08:47.197Z,5.33
2018-02-27T19:11:14.996Z,5.50
2018-02-27T19:13:43.533Z,5.03
2018-02-27T19:16:11.309Z,5.03
2018-02-27T19:18:39.087Z,5.17
2018-02-27T19:21:06.897Z,6.30
2018-02-27T19:23:34.709Z,6.30
2018-02-27T19:26:02.500Z,5.10
2018-02-27T19:28:31.058Z,5.27
2018-02-27T19:30:58.842Z,5.10
2018-02-27T19:33:26.608Z,5.40
2018-02-27T19:35:55.254Z,7.23
2018-02-27T19:38:23.043Z,8.10
2018-02-27T19:40:50.842Z,6.90
2018-02-27T19:43:18.625Z,7.57
2018-02-27T19:45:46.402Z,8.57
2018-02-27T19:48:14.190Z,8.33
2018-02-27T19:50:41.978Z,6.73
2018-02-27T19:53:10.526Z,5.30
2018-02-27T19:55:38.289Z,5.37
2018-02-27T19:58:06.101Z,4.33
2018-02-27T20:00:34.634Z,5.63
2018-02-27T20:03:04.354Z,5.80
2018-02-27T20:05:32.121Z,6.13
2018-02-27T20:07:59.960Z,6.90
2018-02-27T20:10:27.778Z,4.90
2018-02-27T20:12:56.337Z,5.10
2018-02-27T20:15:24.125Z,4.87
2018-02-27T20:17:58.330Z,4.33
2018-02-27T20:20:26.110Z,7.33
2018-02-27T20:23:00.175Z,5.50
2018-02-27T20:25:27.958Z,5.27
2018-02-27T20:27:55.739Z,6.53
2018-02-27T20:30:24.321Z,4.40
2018-02-27T20:32:52.098Z,3.10
2018-02-27T20:35:20.632Z,3.50
2018-02-27T20:37:48.442Z,3.10
2018-02-27T20:40:16.993Z,4.70
2018-02-27T20:42:44.777Z,3.13
2018-02-27T20:45:12.546Z,4.37
2018-02-27T20:47:41.111Z,2.80
2018-02-27T20:50:08.895Z,3.40
2018-02-27T20:52:37.436Z,4.30
2018-02-27T20:55:05.214Z,4.97
2018-02-27T20:57:32.982Z,4.50
2018-02-27T21:00:00.778Z,4.87
2018-02-27T21:02:28.698Z,4.40
2018-02-27T21:04:56.488Z,4.67
2018-02-27T21:07:24.268Z,5.20
2018-02-27T21:09:52.809Z,4.13
2018-02-27T21:12:20.610Z,3.73
2018-02-27T21:14:49.166Z,4.50
2018-02-27T21:17:17.119Z,4.80
2018-02-27T21:19:44.909Z,6.20
2018-02-27T21:22:12.691Z,25.23
2018-02-27T21:24:41.231Z,22.80
2018-02-27T21:27:09.025Z,7.97
2018-02-27T21:29:36.804Z,5.47
2018-02-27T21:32:05.349Z,3.20
2018-02-27T21:34:33.122Z,3.57
2018-02-27T21:37:00.882Z,3.60
2018-02-27T21:39:28.673Z,3.27
2018-02-27T21:41:57.209Z,4.97
2018-02-27T21:44:25.022Z,5.62
2018-02-27T21:47:01.626Z,5.27
2018-02-27T21:49:30.315Z,6.30
2018-02-27T21:51:58.096Z,4.70
2018-02-27T21:54:25.867Z,5.07
2018-02-27T21:56:53.634Z,4.37
2018-02-27T21:59:21.466Z,4.47
2018-02-27T22:01:49.329Z,3.50
2018-02-27T22:04:17.092Z,4.83
2018-02-27T22:06:44.868Z,4.43
2018-02-27T22:09:12.641Z,3.80
2018-02-27T22:11:40.410Z,4.77
2018-02-27T22:14:08.189Z,4.60
2018-02-27T22:16:35.957Z,4.10
2018-02-27T22:19:03.798Z,3.80
2018-02-27T22:21:31.572Z,4.17
2018-02-27T22:23:59.354Z,4.53
2018-02-27T22:26:27.121Z,4.57
2018-02-27T22:28:54.895Z,4.50
2018-02-27T22:31:22.666Z,3.20
2018-02-27T22:33:50.466Z,3.10
2018-02-27T22:36:18.246Z,3.37
2018-02-27T22:38:46.050Z,2.93
2018-02-27T22:41:13.842Z,2.50
2018-02-27T22:43:42.389Z,3.63
2018-02-27T22:46:10.166Z,3.20
2018-02-27T22:48:37.940Z,2.87
2018-02-27T22:51:06.480Z,3.27
2018-02-27T22:53:34.266Z,3.27
2018-02-27T22:56:09.350Z,3.50
2018-02-27T22:58:37.149Z,3.90
2018-02-27T23:01:12.712Z,3.93
2018-02-27T23:03:48.364Z,3.80
2018-02-27T23:06:51.724Z,3.60
2018-02-27T23:09:19.624Z,4.60
2018-02-27T23:11:47.547Z,3.77
2018-02-27T23:14:15.365Z,4.20
2018-02-27T23:16:43.145Z,3.60
2018-02-27T23:19:10.926Z,3.97
2018-02-27T23:21:38.713Z,3.07
2018-02-27T23:24:28.379Z,3.20
2018-02-27T23:55:36.647Z,7.13
